createdAt,value
2022-10-29T00:01:01.799Z,100.00
2022-10-29T00:03:29.061Z,100.00
2022-10-29T00:05:59.521Z,100.00
2022-10-29T00:08:28.557Z,100.00
2022-10-29T00:10:56.189Z,100.00
2022-10-29T00:13:23.720Z,100.00
2022-10-29T00:15:50.950Z,100.00
2022-10-29T00:18:18.211Z,100.00
2022-10-29T00:20:45.554Z,100.00
2022-10-29T00:23:12.902Z,100.00
2022-10-29T00:25:40.151Z,100.00
2022-10-29T00:28:07.407Z,100.00
2022-10-29T00:30:35.816Z,100.00
2022-10-29T00:33:03.029Z,100.00
2022-10-29T00:35:30.219Z,100.00
2022-10-29T00:37:57.688Z,100.00
2022-10-29T00:40:25.188Z,100.00
2022-10-29T00:42:52.371Z,100.00
2022-10-29T00:45:21.256Z,100.00
2022-10-29T00:47:53.549Z,100.00
2022-10-29T00:50:23.706Z,100.00
2022-10-29T00:52:52.202Z,100.00
2022-10-29T00:55:20.985Z,100.00
2022-10-29T00:57:54.767Z,100.00
2022-10-29T01:00:22.453Z,100.00
2022-10-29T01:02:50.203Z,100.00
2022-10-29T01:05:21.623Z,100.00
2022-10-29T01:07:49.546Z,100.00
2022-10-29T01:10:22.807Z,100.00
2022-10-29T01:13:22.453Z,100.00
2022-10-29T01:16:11.319Z,100.00
2022-10-29T01:18:58.281Z,100.00
2022-10-29T01:21:38.672Z,100.00
2022-10-29T01:24:14.502Z,100.00
2022-10-29T01:27:20.497Z,100.00
2022-10-29T01:30:13.703Z,100.00
2022-10-29T01:33:09.975Z,100.00
2022-10-29T01:36:19.143Z,100.00
2022-10-29T01:39:26.688Z,100.00
2022-10-29T01:42:28.902Z,100.00
2022-10-29T01:45:33.944Z,100.00
2022-10-29T01:48:12.106Z,100.00
2022-10-29T01:50:44.587Z,100.00
2022-10-29T01:53:12.086Z,100.00
2022-10-29T01:55:39.441Z,100.00
2022-10-29T01:58:07.667Z,100.00
2022-10-29T02:00:56.747Z,100.00
2022-10-29T02:04:03.832Z,100.00
2022-10-29T02:07:30.553Z,100.00
2022-10-29T02:10:19.751Z,100.00
2022-10-29T02:12:54.092Z,100.00
2022-10-29T02:15:48.499Z,100.00
2022-10-29T02:18:17.278Z,100.00
2022-10-29T02:20:46.865Z,100.00
2022-10-29T02:23:15.418Z,100.00
2022-10-29T02:25:42.931Z,100.00
2022-10-29T02:28:10.441Z,100.00
2022-10-29T02:30:37.687Z,100.00
2022-10-29T02:33:05.044Z,100.00
2022-10-29T02:35:32.355Z,100.00
2022-10-29T02:37:59.577Z,100.00
2022-10-29T02:40:26.800Z,100.00
2022-10-29T02:42:54.959Z,100.00
2022-10-29T02:45:22.595Z,100.00
2022-10-29T02:47:49.818Z,100.00
2022-10-29T02:50:17.124Z,100.00
2022-10-29T02:52:44.312Z,100.00
2022-10-29T02:55:11.536Z,100.00
2022-10-29T02:57:38.749Z,100.00
2022-10-29T03:00:06.861Z,100.00
2022-10-29T03:02:34.193Z,100.00
2022-10-29T03:05:01.596Z,100.00
2022-10-29T03:07:28.927Z,100.00
2022-10-29T03:09:56.124Z,100.00
2022-10-29T03:12:23.323Z,100.00
2022-10-29T03:14:50.575Z,100.00
2022-10-29T03:17:17.747Z,100.00
2022-10-29T03:19:44.917Z,100.00
2022-10-29T03:22:12.114Z,100.00
2022-10-29T03:24:39.320Z,100.00
2022-10-29T03:27:06.636Z,100.00
2022-10-29T03:29:33.804Z,100.00
2022-10-29T03:32:01.049Z,100.00
2022-10-29T03:34:28.340Z,100.00
2022-10-29T03:36:55.525Z,100.00
2022-10-29T03:39:22.715Z,100.00
2022-10-29T03:41:49.885Z,100.00
2022-10-29T03:44:17.173Z,100.00
2022-10-29T03:46:44.353Z,100.00
2022-10-29T03:49:11.606Z,100.00
2022-10-29T03:51:39.687Z,100.00
2022-10-29T03:54:06.861Z,100.00
2022-10-29T03:56:34.058Z,100.00
2022-10-29T03:59:01.220Z,100.00
2022-10-29T04:01:28.622Z,100.00
2022-10-29T04:03:55.857Z,100.00
2022-10-29T04:06:23.266Z,100.00
2022-10-29T04:08:50.526Z,100.00
2022-10-29T04:11:17.650Z,100.00
2022-10-29T04:13:44.846Z,100.00
2022-10-29T04:16:12.082Z,100.00
2022-10-29T04:18:39.379Z,100.00
2022-10-29T04:27:01.739Z,100.00
2022-10-29T04:29:30.792Z,100.00
2022-10-29T04:31:58.020Z,100.00
2022-10-29T04:34:25.326Z,100.00
2022-10-29T04:36:53.710Z,100.00
2022-10-29T04:39:23.379Z,100.00
2022-10-29T04:41:50.952Z,100.00
2022-10-29T04:44:21.849Z,100.00
2022-10-29T04:46:49.178Z,100.00
2022-10-29T04:49:16.551Z,100.00
2022-10-29T04:51:43.903Z,100.00
2022-10-29T04:54:11.480Z,100.00
2022-10-29T04:56:38.668Z,100.00
2022-10-29T04:59:05.880Z,100.00
2022-10-29T05:01:33.316Z,100.00
2022-10-29T05:04:00.652Z,100.00
2022-10-29T05:06:27.923Z,100.00
2022-10-29T05:08:55.135Z,100.00
2022-10-29T05:11:22.355Z,100.00
2022-10-29T05:13:52.091Z,100.00
2022-10-29T05:16:19.396Z,100.00
2022-10-29T05:18:46.697Z,100.00
2022-10-29T05:21:14.069Z,100.00
2022-10-29T05:23:41.384Z,100.00
2022-10-29T05:26:08.601Z,100.00
2022-10-29T05:28:36.083Z,100.00
2022-10-29T05:31:03.410Z,100.00
2022-10-29T05:33:30.697Z,100.00
2022-10-29T05:36:01.183Z,100.00
2022-10-29T05:38:28.467Z,100.00
2022-10-29T05:40:59.476Z,100.00
2022-10-29T05:43:27.012Z,100.00
2022-10-29T05:45:54.549Z,100.00
2022-10-29T05:48:21.780Z,100.00
2022-10-29T05:50:49.237Z,100.00
2022-10-29T05:53:16.525Z,100.00
2022-10-29T05:55:43.800Z,100.00
2022-10-29T05:58:13.523Z,100.00
2022-10-29T06:00:44.065Z,100.00
2022-10-29T06:03:18.134Z,100.00
2022-10-29T06:05:47.762Z,100.00
2022-10-29T06:08:15.589Z,100.00
2022-10-29T06:10:42.966Z,100.00
2022-10-29T06:13:21.729Z,100.00
2022-10-29T06:15:50.358Z,100.00
2022-10-29T06:18:17.643Z,100.00
2022-10-29T06:20:44.961Z,100.00
2022-10-29T06:23:12.290Z,100.00
2022-10-29T06:25:39.808Z,100.00
2022-10-29T06:28:12.264Z,100.00
2022-10-29T06:30:39.578Z,100.00
2022-10-29T06:33:07.282Z,100.00
2022-10-29T06:38:10.844Z,100.00
2022-10-29T06:40:40.502Z,100.00
2022-10-29T06:43:12.551Z,100.00
2022-10-29T06:45:40.008Z,100.00
2022-10-29T06:48:07.472Z,100.00
2022-10-29T06:50:34.950Z,100.00
2022-10-29T06:53:09.715Z,100.00
2022-10-29T06:55:36.949Z,100.00
2022-10-29T06:58:08.218Z,100.00
2022-10-29T07:00:35.892Z,100.00
2022-10-29T07:03:05.168Z,100.00
2022-10-29T07:05:34.001Z,100.00
2022-10-29T07:08:02.101Z,100.00
2022-10-29T07:10:31.815Z,100.00
2022-10-29T07:13:00.006Z,100.00
2022-10-29T07:15:30.328Z,100.00
2022-10-29T07:18:07.557Z,100.00
2022-10-29T07:20:38.789Z,100.00
2022-10-29T07:23:06.223Z,100.00
2022-10-29T07:25:36.389Z,100.00
2022-10-29T07:28:06.390Z,100.00
2022-10-29T07:30:34.470Z,100.00
2022-10-29T07:33:01.882Z,100.00
2022-10-29T07:35:29.460Z,100.00
2022-10-29T07:38:09.126Z,100.00
2022-10-29T07:40:48.404Z,100.00
2022-10-29T07:43:16.816Z,100.00
2022-10-29T07:45:47.150Z,100.00
2022-10-29T07:48:14.339Z,100.00
2022-10-29T07:50:42.024Z,100.00
2022-10-29T07:53:09.953Z,100.00
2022-10-29T07:55:37.525Z,100.00
2022-10-29T07:58:08.661Z,100.00
2022-10-29T08:00:39.922Z,88.39
2022-10-29T08:03:07.290Z,70.49
2022-10-29T08:05:35.094Z,77.08
2022-10-29T08:08:02.548Z,85.15
2022-10-29T08:10:31.313Z,88.85
2022-10-29T08:13:03.160Z,94.49
2022-10-29T08:15:33.380Z,100.00
2022-10-29T08:18:01.788Z,100.00
2022-10-29T08:20:30.735Z,100.00
2022-10-29T08:23:00.929Z,100.00
2022-10-29T08:25:28.622Z,100.00
2022-10-29T08:28:04.872Z,100.00
2022-10-29T08:30:32.930Z,98.41
2022-10-29T08:33:01.679Z,89.04
2022-10-29T08:35:30.103Z,80.35
2022-10-29T08:37:57.670Z,75.56
2022-10-29T08:40:31.637Z,73.70
2022-10-29T08:43:55.680Z,71.71
2022-10-29T08:46:42.386Z,65.78
2022-10-29T08:49:21.937Z,53.19
2022-10-29T08:51:58.756Z,56.61
2022-10-29T08:54:31.771Z,58.72
2022-10-29T08:57:33.365Z,55.95
2022-10-29T09:00:16.960Z,56.67
2022-10-29T09:02:44.881Z,52.76
2022-10-29T09:05:21.230Z,51.80
2022-10-29T09:08:20.486Z,49.62
2022-10-29T09:11:06.185Z,48.59
2022-10-29T09:14:15.640Z,45.13
2022-10-29T09:16:57.380Z,43.09
2022-10-29T09:19:47.513Z,41.49
2022-10-29T09:22:47.756Z,40.54
2022-10-29T09:25:55.925Z,40.61
2022-10-29T09:28:45.049Z,39.04
2022-10-29T09:31:28.710Z,39.60
2022-10-29T09:34:04.569Z,40.81
2022-10-29T09:36:32.843Z,38.17
2022-10-29T09:39:10.111Z,39.24
2022-10-29T09:41:39.113Z,40.99
2022-10-29T09:44:41.521Z,40.05
2022-10-29T09:47:51.122Z,39.56
2022-10-29T09:50:56.742Z,39.89
2022-10-29T09:53:24.501Z,42.86
2022-10-29T09:55:54.879Z,43.33
2022-10-29T09:58:26.036Z,42.77
2022-10-29T10:00:55.043Z,44.75
2022-10-29T10:03:42.034Z,45.15
2022-10-29T10:06:12.987Z,46.18
2022-10-29T10:09:05.018Z,46.43
2022-10-29T10:11:49.282Z,46.91
2022-10-29T10:14:24.184Z,47.93
2022-10-29T10:17:03.222Z,46.65
2022-10-29T10:19:32.843Z,45.12
2022-10-29T10:22:16.549Z,44.12
2022-10-29T10:24:43.853Z,43.25
2022-10-29T10:27:20.478Z,43.83
2022-10-29T10:30:12.750Z,43.86
2022-10-29T10:32:40.198Z,41.58
2022-10-29T10:35:30.938Z,39.10
2022-10-29T10:38:06.634Z,37.65
2022-10-29T10:40:33.962Z,36.54
2022-10-29T10:43:05.514Z,37.58
2022-10-29T10:45:40.209Z,37.24
2022-10-29T10:48:14.664Z,37.48
2022-10-29T10:50:42.120Z,35.90
2022-10-29T10:53:23.067Z,34.91
2022-10-29T10:55:57.986Z,36.86
2022-10-29T10:58:41.687Z,39.14
2022-10-29T11:01:23.856Z,41.59
2022-10-29T11:04:13.106Z,42.56
2022-10-29T11:06:49.866Z,46.65
2022-10-29T11:09:37.675Z,48.45
2022-10-29T11:12:44.475Z,47.25
2022-10-29T11:15:36.443Z,48.18
2022-10-29T11:18:42.320Z,52.64
2022-10-29T11:21:29.285Z,56.96
2022-10-29T11:24:18.161Z,59.26
2022-10-29T11:26:59.939Z,61.33
2022-10-29T11:30:10.119Z,59.45
2022-10-29T11:33:02.455Z,60.79
2022-10-29T11:36:21.287Z,54.69
2022-10-29T11:39:19.298Z,52.73
2022-10-29T11:41:49.587Z,52.57
2022-10-29T11:44:20.791Z,51.66
2022-10-29T11:47:27.948Z,52.17
2022-10-29T11:50:21.147Z,52.37
2022-10-29T11:52:54.842Z,53.80
2022-10-29T11:55:46.477Z,54.96
2022-10-29T11:58:42.899Z,55.62
2022-10-29T12:01:37.967Z,54.99
2022-10-29T12:04:47.525Z,55.77
2022-10-29T12:07:22.434Z,59.23
2022-10-29T12:10:02.137Z,65.10
2022-10-29T12:12:48.316Z,67.70
2022-10-29T12:15:47.113Z,69.78
2022-10-29T12:18:30.611Z,75.74
2022-10-29T12:21:22.629Z,75.08
2022-10-29T12:24:11.310Z,77.72
2022-10-29T12:26:46.605Z,79.10
2022-10-29T12:29:27.890Z,79.90
2022-10-29T12:32:20.338Z,80.56
2022-10-29T12:34:55.974Z,80.94
2022-10-29T12:37:38.008Z,81.84
2022-10-29T12:40:26.036Z,86.33
2022-10-29T12:42:54.918Z,90.29
2022-10-29T12:46:06.357Z,92.06
2022-10-29T12:48:49.670Z,91.52
2022-10-29T12:51:49.078Z,94.93
2022-10-29T12:54:41.161Z,92.78
2022-10-29T12:57:14.563Z,94.74
2022-10-29T12:59:47.174Z,92.94
2022-10-29T13:02:38.826Z,98.85
2022-10-29T13:05:09.820Z,100.00
2022-10-29T13:07:46.443Z,100.00
2022-10-29T13:10:22.586Z,100.00
2022-10-29T13:12:55.692Z,100.00
2022-10-29T13:15:34.853Z,100.00
2022-10-29T13:18:37.648Z,100.00
2022-10-29T13:21:08.744Z,100.00
2022-10-29T13:23:37.719Z,100.00
2022-10-29T13:26:09.488Z,100.00
2022-10-29T13:28:36.695Z,100.00
2022-10-29T13:31:06.878Z,100.00
2022-10-29T13:33:34.038Z,100.00
2022-10-29T13:36:16.549Z,100.00
2022-10-29T13:39:07.369Z,100.00
2022-10-29T13:41:43.394Z,100.00
2022-10-29T13:44:23.667Z,100.00
2022-10-29T13:47:05.302Z,100.00
2022-10-29T13:49:37.688Z,100.00
2022-10-29T13:52:09.057Z,100.00
2022-10-29T13:55:06.423Z,100.00
2022-10-29T13:57:59.516Z,100.00
2022-10-29T14:00:28.222Z,100.00
2022-10-29T14:03:17.018Z,100.00
2022-10-29T14:06:14.079Z,100.00
2022-10-29T14:08:49.054Z,100.00
2022-10-29T14:11:29.934Z,100.00
2022-10-29T14:14:31.340Z,100.00
2022-10-29T14:17:16.320Z,100.00
2022-10-29T14:19:49.485Z,100.00
2022-10-29T14:22:28.685Z,100.00
2022-10-29T14:24:57.096Z,100.00
2022-10-29T14:27:24.317Z,100.00
2022-10-29T14:29:53.162Z,100.00
2022-10-29T14:32:22.833Z,100.00
2022-10-29T14:34:51.862Z,100.00
2022-10-29T14:37:37.693Z,100.00
2022-10-29T14:40:21.412Z,100.00
2022-10-29T14:42:54.058Z,100.00
2022-10-29T14:45:28.416Z,100.00
2022-10-29T14:48:10.131Z,100.00
2022-10-29T14:50:37.647Z,100.00
2022-10-29T14:53:18.568Z,100.00
2022-10-29T14:55:49.275Z,100.00
2022-10-29T14:58:30.018Z,100.00
2022-10-29T15:01:03.645Z,100.00
2022-10-29T15:03:34.037Z,100.00
2022-10-29T15:06:26.026Z,100.00
2022-10-29T15:09:01.488Z,100.00
2022-10-29T15:11:38.726Z,100.00
2022-10-29T15:14:32.987Z,100.00
2022-10-29T15:17:01.539Z,100.00
2022-10-29T15:19:29.172Z,100.00
2022-10-29T15:21:56.471Z,100.00
2022-10-29T15:24:24.553Z,100.00
2022-10-29T15:26:56.511Z,100.00
2022-10-29T15:29:34.031Z,100.00
2022-10-29T15:32:02.924Z,100.00
2022-10-29T15:34:40.497Z,100.00
2022-10-29T15:37:39.104Z,100.00
2022-10-29T15:40:24.290Z,100.00
2022-10-29T15:42:53.103Z,100.00
2022-10-29T15:45:23.896Z,100.00
2022-10-29T15:48:09.167Z,100.00
2022-10-29T15:50:43.479Z,100.00
2022-10-29T15:53:17.681Z,100.00
2022-10-29T15:55:45.197Z,100.00
2022-10-29T15:58:18.183Z,100.00
2022-10-29T16:00:46.417Z,100.00
2022-10-29T16:03:26.758Z,100.00
2022-10-29T16:06:03.949Z,100.00
2022-10-29T16:08:39.548Z,100.00
2022-10-29T16:11:16.112Z,100.00
2022-10-29T16:13:43.478Z,100.00
2022-10-29T16:16:18.762Z,100.00
2022-10-29T16:18:49.078Z,100.00
2022-10-29T16:21:26.075Z,100.00
2022-10-29T16:23:53.780Z,100.00
2022-10-29T16:26:24.791Z,100.00
2022-10-29T16:28:55.638Z,100.00
2022-10-29T16:31:27.509Z,100.00
2022-10-29T16:33:59.039Z,100.00
2022-10-29T16:36:26.494Z,100.00
2022-10-29T16:38:53.715Z,100.00
2022-10-29T16:41:21.584Z,100.00
2022-10-29T16:43:49.188Z,100.00
2022-10-29T16:46:16.572Z,100.00
2022-10-29T16:48:44.227Z,100.00
2022-10-29T16:51:11.458Z,100.00
2022-10-29T16:53:39.106Z,100.00
2022-10-29T16:56:06.876Z,100.00
2022-10-29T16:58:34.293Z,100.00
2022-10-29T17:01:10.722Z,100.00
2022-10-29T17:03:39.314Z,100.00
2022-10-29T17:06:10.529Z,100.00
2022-10-29T17:08:38.948Z,100.00
2022-10-29T17:11:10.283Z,100.00
2022-10-29T17:13:38.679Z,100.00
2022-10-29T17:16:08.389Z,100.00
2022-10-29T17:18:35.794Z,100.00
2022-10-29T17:21:04.120Z,100.00
2022-10-29T17:23:32.932Z,100.00
2022-10-29T17:26:00.818Z,100.00
2022-10-29T17:28:28.747Z,100.00
2022-10-29T17:30:56.116Z,100.00
2022-10-29T17:33:23.548Z,100.00
2022-10-29T17:36:00.160Z,100.00
2022-10-29T17:38:27.492Z,100.00
2022-10-29T17:40:54.721Z,100.00
2022-10-29T17:43:22.217Z,100.00
2022-10-29T17:45:50.667Z,100.00
2022-10-29T17:48:22.329Z,100.00
2022-10-29T17:51:01.817Z,100.00
2022-10-29T17:53:30.695Z,100.00
2022-10-29T17:55:59.920Z,100.00
2022-10-29T17:58:27.973Z,100.00
2022-10-29T18:01:02.423Z,100.00
2022-10-29T18:03:29.729Z,100.00
2022-10-29T18:06:05.889Z,100.00
2022-10-29T18:08:36.008Z,100.00
2022-10-29T18:11:17.446Z,100.00
2022-10-29T18:13:46.455Z,100.00
2022-10-29T18:16:18.541Z,100.00
2022-10-29T18:19:01.004Z,100.00
2022-10-29T18:21:30.348Z,100.00
2022-10-29T18:23:58.175Z,100.00
2022-10-29T18:26:34.231Z,100.00
2022-10-29T18:29:10.626Z,100.00
2022-10-29T18:31:40.262Z,100.00
2022-10-29T18:34:08.010Z,100.00
2022-10-29T18:36:38.963Z,100.00
2022-10-29T18:39:06.594Z,100.00
2022-10-29T18:41:34.944Z,100.00
2022-10-29T18:44:02.596Z,100.00
2022-10-29T18:46:30.025Z,100.00
2022-10-29T18:48:57.316Z,100.00
2022-10-29T18:51:30.565Z,100.00
2022-10-29T18:53:59.520Z,100.00
2022-10-29T18:56:29.477Z,100.00
2022-10-29T18:58:58.995Z,100.00
2022-10-29T19:01:31.727Z,100.00
2022-10-29T19:04:03.700Z,100.00
2022-10-29T19:06:34.335Z,100.00
2022-10-29T19:09:03.351Z,100.00
2022-10-29T19:11:30.891Z,100.00
2022-10-29T19:14:01.686Z,100.00
2022-10-29T19:16:31.128Z,100.00
2022-10-29T19:19:07.970Z,100.00
2022-10-29T19:21:37.189Z,100.00
2022-10-29T19:24:05.770Z,100.00
2022-10-29T19:26:35.902Z,100.00
2022-10-29T19:29:07.943Z,100.00
2022-10-29T19:31:36.779Z,100.00
2022-10-29T19:34:07.284Z,100.00
2022-10-29T19:36:36.952Z,100.00
2022-10-29T19:39:05.008Z,100.00
2022-10-29T19:41:33.014Z,100.00
2022-10-29T19:44:01.969Z,100.00
2022-10-29T19:46:30.313Z,100.00
2022-10-29T19:48:58.507Z,100.00
2022-10-29T19:51:25.970Z,100.00
2022-10-29T19:53:53.407Z,100.00
2022-10-29T19:56:21.754Z,100.00
2022-10-29T19:58:49.305Z,100.00
2022-10-29T20:01:19.008Z,100.00
2022-10-29T20:03:47.213Z,100.00
2022-10-29T20:06:15.921Z,100.00
2022-10-29T20:08:43.330Z,100.00
2022-10-29T20:11:10.855Z,100.00
2022-10-29T20:13:39.883Z,100.00
2022-10-29T20:16:10.278Z,100.00
2022-10-29T20:18:38.490Z,100.00
2022-10-29T20:23:38.710Z,100.00
2022-10-29T20:26:07.401Z,100.00
2022-10-29T20:28:35.257Z,100.00
2022-10-29T20:31:17.825Z,100.00
2022-10-29T20:33:59.285Z,100.00
2022-10-29T20:36:31.631Z,100.00
2022-10-29T20:38:59.099Z,100.00
2022-10-29T20:41:27.633Z,100.00
2022-10-29T20:43:58.021Z,100.00
2022-10-29T20:46:26.491Z,100.00
2022-10-29T20:48:53.898Z,100.00
2022-10-29T20:51:22.903Z,100.00
2022-10-29T20:53:51.593Z,100.00
2022-10-29T20:56:21.152Z,100.00
2022-10-29T20:58:48.563Z,100.00
2022-10-29T21:01:18.434Z,100.00
2022-10-29T21:03:48.108Z,100.00
2022-10-29T21:06:17.538Z,100.00
2022-10-29T21:08:51.108Z,100.00
2022-10-29T21:11:20.696Z,100.00
2022-10-29T21:13:48.077Z,100.00
2022-10-29T21:16:28.206Z,100.00
2022-10-29T21:18:58.598Z,100.00
2022-10-29T21:21:27.465Z,100.00
2022-10-29T21:23:56.389Z,100.00
2022-10-29T21:26:26.365Z,100.00
2022-10-29T21:28:54.662Z,100.00
2022-10-29T21:31:23.485Z,100.00
2022-10-29T21:33:52.556Z,100.00
2022-10-29T21:36:20.324Z,100.00
2022-10-29T21:38:48.265Z,100.00
2022-10-29T21:41:15.967Z,100.00
2022-10-29T21:43:43.203Z,100.00
2022-10-29T21:46:10.773Z,100.00
2022-10-29T21:48:37.931Z,100.00
2022-10-29T21:51:11.754Z,100.00
2022-10-29T21:53:39.039Z,100.00
2022-10-29T21:56:08.750Z,100.00
2022-10-29T21:58:35.984Z,100.00
2022-10-29T22:01:21.254Z,100.00
2022-10-29T22:03:48.533Z,100.00
2022-10-29T22:06:19.108Z,100.00
2022-10-29T22:08:47.139Z,100.00
2022-10-29T22:11:15.730Z,100.00
2022-10-29T22:13:42.944Z,100.00
2022-10-29T22:16:11.550Z,100.00
2022-10-29T22:18:39.888Z,100.00
2022-10-29T22:21:16.060Z,100.00
2022-10-29T22:23:58.205Z,100.00
2022-10-29T22:26:30.524Z,100.00
2022-10-29T22:28:57.937Z,100.00
2022-10-29T22:31:25.358Z,100.00
2022-10-29T22:33:52.819Z,100.00
2022-10-29T22:36:23.904Z,100.00
2022-10-29T22:39:00.032Z,100.00
2022-10-29T22:41:29.413Z,100.00
2022-10-29T22:44:00.050Z,100.00
2022-10-29T22:46:28.491Z,100.00
2022-10-29T22:48:56.490Z,100.00
2022-10-29T22:51:26.704Z,100.00
2022-10-29T22:53:54.838Z,100.00
2022-10-29T22:56:31.864Z,100.00
2022-10-29T22:58:59.610Z,100.00
2022-10-29T23:01:30.696Z,100.00
2022-10-29T23:03:59.183Z,100.00
2022-10-29T23:06:28.245Z,100.00
2022-10-29T23:09:04.005Z,100.00
2022-10-29T23:11:35.008Z,100.00
2022-10-29T23:14:03.006Z,100.00
2022-10-29T23:16:33.055Z,100.00
2022-10-29T23:19:02.914Z,100.00
2022-10-29T23:21:30.301Z,100.00
2022-10-29T23:23:58.269Z,100.00
2022-10-29T23:26:26.798Z,100.00
2022-10-29T23:28:54.079Z,100.00
2022-10-29T23:31:24.490Z,100.00
2022-10-29T23:33:54.353Z,100.00
2022-10-29T23:36:23.957Z,100.00
2022-10-29T23:38:59.942Z,100.00
2022-10-29T23:41:31.661Z,100.00
2022-10-29T23:43:59.425Z,100.00
2022-10-29T23:46:26.597Z,100.00
2022-10-29T23:48:54.321Z,100.00
2022-10-29T23:51:21.927Z,100.00
2022-10-29T23:53:53.124Z,100.00
2022-10-29T23:56:23.735Z,100.00
2022-10-29T23:58:50.865Z,100.00
